Portada
METAR-TAF:

METAR-TAF

Aeroports :

Lahaina, Hawaii, Estats Units d'Amèrica

latitud: 21-01N, longitud: 156-38W, altitud: 40 m

METAR: manca

Hora: 07:35 (17:35 UTC)

Pronòstic

L'informe es va fer fa 13 minuts, a les 17:22 UTC
Pronòstic vàlid del 07 a les 18 UTC al 08 a les 18 UTC
Vent 11 kt del Est/Nord-Est amb ràfegues de 20 kt
Visibilitat: 10 km
Cel cobert a una alçada de 3000 ft
A partir de les 07 a les 2000 UTC
Vent 12 kt del Est/Nord-Est amb ràfegues de 21 kt
Visibilitat: 10 km
Núvols disperses a una alçada de 3000 ft
Núvols disperses a una alçada de 6000 ft
A partir de les 08 a les 0600 UTC
Vent 8 kt del Est/Nord-Est amb ràfegues de 18 kt
Visibilitat: 10 km
Escasses núvols a una alçada de 3000 ft

TAF: PHJH 071722Z 0718/0818 06011G20KT P6SM OVC030 FM072000 06012G21KT P6SM SCT030 SCT060 FM080600 06008G18KT P6SM FEW030

Observacions i pronòstics meteorològics de més de 4000 aeroports (METAR i TAF).

Les estacions disponibles són els punts grocs i vermells al mapa.

Posi el ratolí al punt desitjat per veure el nom de l'estació.

Feu clic per veure les observacions i els pronòstics meteorològics.

Per canviar el mapa: feu clic els botons verds amb una creu de color negre per apropar; al botó verd amb un guió per allunyar la imatge; o en les fletxes verdes per a mapes adjacents.


METAR-TAF: